Latest Coastal Weather Observations for Lucinda

IDQ60701

Issued at 10:41 pm EST Saturday 23 September 2017 (issued every 10 minutes, with the page automatically refreshed every 10 minutes)

About coastal observations | Map of coastal stations | Coastal observations for QLD | Marine services | Other Formats
Station Details ID: 032141 Name: LUCINDA POINT Lat: -18.52 Lon: 146.39 Height: 10.0 m
Data from the previous 72 hours. | See also: Recent months at Lucinda
Date/Time
EST
Temp
°C
Wind Pressure Rain since
9am
mm
Weather Cloud Vis
km
Sea
Height
m
Swell
Dir  Spd
kts
Gust
kts
hPa Trend Height
m
Period
s
Dir
23/10:30pm 24.0 NE 9 10 1016.4 - 0.0 - - - - - - -
23/10:00pm 24.0 NE 8 10 1016.4 - 0.0 - - - - - - -
23/09:30pm 23.9 N 7 9 1016.5 - 0.0 - - - - - - -
23/09:00pm 23.9 NNE 8 10 1016.4 - 0.0 - - - - - - -
23/08:30pm 24.0 NE 9 11 1016.2 - 0.0 - - - - - - -
23/08:00pm 24.0 NE 10 12 1015.9 - 0.0 - - - - - - -
23/07:30pm 24.0 NE 10 12 1015.6 - 0.0 - - - - - - -
23/07:00pm 24.1 NE 10 12 1015.5 - 0.0 - - - - - - -
23/06:30pm 24.0 NE 10 12 1015.3 - 0.0 - - - - - - -
23/06:00pm 24.1 NE 10 12 1015.0 - 0.0 - - - - - - -
23/05:30pm 24.4 ENE 9 13 1014.9 - 0.0 - - - - - - -
23/05:00pm 24.4 ENE 10 14 1014.6 - 0.0 - - - - - - -
23/04:30pm 24.6 ENE 10 13 1014.6 - 0.0 - - - - - - -
23/04:00pm 24.5 ENE 11 13 1014.6 - 0.0 - - - - - - -
23/03:30pm 24.4 ENE 10 12 1014.6 - 0.0 - - - - - - -
23/03:00pm 24.9 E 9 11 1014.7 - 0.0 - - - - - - -
23/02:30pm 25.0 ENE 9 11 1014.9 - 0.0 - - - - - - -
23/02:00pm 25.0 ENE 9 11 1015.2 - 0.0 - - - - - - -
23/01:30pm 25.1 E 7 11 1015.6 - 0.0 - - - - - - -
23/01:00pm 25.0 ENE 7 9 1016.0 - 0.0 - - - - - - -
23/12:30pm 25.1 ENE 6 8 1016.4 - 0.0 - - - - - - -
23/12:00pm 25.2 ENE 5 7 1016.7 - 0.0 - - - - - - -
23/11:30am 25.4 ENE 6 8 1017.2 - 0.0 - - - - - - -
23/11:00am 25.4 ENE 5 7 1017.7 - 0.0 - - - - - - -
23/10:30am 25.5 ENE 5 7 1018.0 - 0.0 - - - - - - -
23/10:00am 25.5 ESE 5 7 1018.2 - 0.0 - - - - - - -
23/09:30am 25.3 ESE 6 8 1018.3 - 0.0 - - - - - - -
23/09:00am 25.2 E 6 8 1018.1 - 0.0 - - - - - - -
23/08:30am 25.0 E 5 8 1018.0 - 0.0 - - - - - - -
23/08:00am 23.1 WSW 4 5 1017.8 - 0.0 - - - - - - -
23/07:30am 22.4 WSW 5 7 1017.4 - 0.0 - - - - - - -
23/07:00am 23.5 SSE 3 4 1016.9 - 0.0 - - - - - - -
23/06:30am 23.7 SE 4 7 1016.5 - 0.0 - - - - - - -
23/06:00am 23.6 E 6 7 1016.2 - 0.0 - - - - - - -
23/05:30am 23.8 ENE 7 10 1015.7 - 0.0 - - - - - - -
23/05:00am 23.7 NE 7 10 1015.6 - 0.0 - - - - - - -
23/04:30am 23.8 NNE 8 9 1015.4 - 0.0 - - - - - - -
23/04:00am 23.9 NE 7 9 1015.2 - 0.0 - - - - - - -
23/03:30am 23.8 NE 9 11 1015.2 - 0.0 - - - - - - -
23/03:00am 23.8 ENE 7 9 1015.3 - 0.0 - - - - - - -
23/02:30am 23.7 NE 9 11 1015.6 - 0.0 - - - - - - -
23/02:00am 24.0 NE 10 11 1015.9 - 0.0 - - - - - - -
23/01:30am 24.0 ENE 12 13 1016.2 - 0.0 - - - - - - -
23/01:00am 24.1 NE 12 14 1016.4 - 0.0 - - - - - - -
23/12:30am 24.1 NNE 10 12 1016.6 - 0.0 - - - - - - -
23/12:00am 24.1 NE 10 12 1016.8 - 0.0 - - - - - - -
 
Date/Time
EST
Temp
°C
Wind Pressure Rain since
9am
mm
Weather Cloud Vis
km
Sea
Height
m
Swell
Dir  Spd
kts
Gust
kts
hPa Trend Height
m
Period
s
Dir
22/11:30pm 24.3 NNE 10 13 1016.9 - 0.0 - - - - - - -
22/11:00pm 24.4 NNE 10 13 1017.0 - 0.0 - - - - - - -
22/10:30pm 24.3 NE 8 10 1017.2 - 0.0 - - - - - - -
22/10:00pm 24.3 NE 10 11 1017.2 - 0.0 - - - - - - -
22/09:30pm 24.3 NNE 10 12 1017.0 - 0.0 - - - - - - -
22/09:00pm 24.4 NNE 10 12 1016.9 - 0.0 - - - - - - -
22/08:30pm 24.4 NNE 10 12 1016.6 - 0.0 - - - - - - -
22/08:00pm 24.4 NNE 9 11 1016.3 - 0.0 - - - - - - -
22/07:30pm 24.4 NNE 10 12 1016.0 - 0.0 - - - - - - -
22/07:00pm 24.5 N 10 12 1015.7 - 0.0 - - - - - - -
22/06:30pm 24.5 N 11 14 1015.6 - 0.0 - - - - - - -
22/06:00pm 24.6 N 13 15 1015.2 - 0.0 - - - - - - -
22/05:30pm 24.8 N 13 16 1014.9 - 0.0 - - - - - - -
22/05:00pm 24.7 NNE 13 15 1014.6 - 0.0 - - - - - - -
22/04:30pm 25.1 NNE 13 17 1014.5 - 0.0 - - - - - - -
22/04:00pm 25.1 NNE 14 17 1014.2 - 0.0 - - - - - - -
22/03:30pm 25.0 NNE 14 16 1014.3 - 0.0 - - - - - - -
22/03:00pm 25.0 NNE 13 17 1014.4 - 0.0 - - - - - - -
22/02:30pm 24.5 NNE 14 17 1014.7 - 0.0 - - - - - - -
22/02:00pm 24.6 NNE 15 16 1015.0 - 0.0 - - - - - - -
22/01:30pm 24.4 NE 14 16 1015.4 - 0.0 - - - - - - -
22/01:00pm 24.3 NE 13 15 1015.9 - 0.0 - - - - - - -
22/12:30pm 24.4 NE 13 14 1016.3 - 0.0 - - - - - - -
22/12:00pm 24.3 NE 11 12 1016.7 - 0.0 - - - - - - -
22/11:30am 24.7 NNE 9 11 1017.3 - 0.0 - - - - - - -
22/11:00am 25.3 NNE 7 8 1017.8 - 0.0 - - - - - - -
22/10:30am 25.6 NNE 1 4 1018.1 - 0.0 - - - - - - -
22/10:00am 26.0 CALM 0 1 1018.3 - 0.0 - - - - - - -
22/09:30am 24.5 CALM 0 0 1018.4 - 0.0 - - - - - - -
22/09:00am 23.5 WSW 1 3 1018.6 - 0.0 - - - - - - -
22/08:30am 22.7 SSW 4 4 1018.3 - 0.0 - - - - - - -
22/08:00am 22.2 SSW 5 6 1018.1 - 0.0 - - - - - - -
22/07:30am 21.7 SW 6 7 1017.7 - 0.0 - - - - - - -
22/07:00am 21.5 WSW 6 8 1017.3 - 0.0 - - - - - - -
22/06:30am 21.3 WSW 6 7 1016.8 - 0.0 - - - - - - -
22/06:00am 21.4 WSW 6 7 1016.3 - 0.0 - - - - - - -
22/05:30am 21.5 SW 7 8 1015.8 - 0.0 - - - - - - -
22/05:00am 21.7 WSW 6 8 1015.6 - 0.0 - - - - - - -
22/04:30am 22.2 WNW 4 7 1015.2 - 0.0 - - - - - - -
22/04:00am 23.6 NE 8 9 1014.9 - 0.0 - - - - - - -
22/03:30am 23.7 NE 8 11 1014.7 - 0.0 - - - - - - -
22/03:00am 23.7 NE 10 12 1014.8 - 0.0 - - - - - - -
22/02:30am 23.7 NE 9 11 1014.9 - 0.0 - - - - - - -
22/02:00am 23.7 NE 9 11 1015.2 - 0.0 - - - - - - -
22/01:30am 23.7 NE 11 13 1015.3 - 0.0 - - - - - - -
22/01:00am 24.0 NE 11 13 1015.7 - 0.0 - - - - - - -
22/12:30am 23.9 ENE 8 11 1016.0 - 0.0 - - - - - - -
22/12:00am 23.8 NE 10 11 1016.1 - 0.0 - - - - - - -
 
Date/Time
EST
Temp
°C
Wind Pressure Rain since
9am
mm
Weather Cloud Vis
km
Sea
Height
m
Swell
Dir  Spd
kts
Gust
kts
hPa Trend Height
m
Period
s
Dir
21/11:30pm 24.1 NE 10 11 1016.4 - 0.0 - - - - - - -
21/11:00pm 24.1 NE 11 14 1016.4 - 0.0 - - - - - - -
21/10:30pm 24.1 NE 10 12 1016.3 - 0.0 - - - - - - -
21/10:00pm 24.0 NE 10 12 1016.5 - 0.0 - - - - - - -
21/09:30pm 24.0 ENE 9 12 1016.4 - 0.0 - - - - - - -
21/09:00pm 24.0 ENE 7 10 1016.4 - 0.0 - - - - - - -
21/08:30pm 23.9 NE 9 11 1016.3 - 0.0 - - - - - - -
21/08:00pm 24.0 NE 9 12 1016.1 - 0.0 - - - - - - -
21/07:30pm 23.9 NE 10 13 1015.9 - 0.0 - - - - - - -
21/07:00pm 23.9 NE 12 15 1015.4 - 0.0 - - - - - - -
21/06:30pm 23.9 NE 12 14 1015.0 - 0.0 - - - - - - -
21/06:00pm 24.3 NE 12 14 1014.7 - 0.0 - - - - - - -
21/05:30pm 24.0 NE 12 14 1014.4 - 0.0 - - - - - - -
21/05:00pm 24.1 NE 15 17 1014.0 - 0.0 - - - - - - -
21/04:30pm 24.1 ENE 13 16 1013.8 - 0.0 - - - - - - -
21/04:00pm 24.4 ENE 10 14 1013.9 - 0.0 - - - - - - -
21/03:30pm 24.6 ENE 10 13 1013.8 - 0.0 - - - - - - -
21/03:00pm 24.7 ENE 9 12 1013.9 - 0.0 - - - - - - -
21/02:30pm 24.9 E 7 9 1014.2 - 0.0 - - - - - - -
21/02:00pm 25.1 E 7 10 1014.6 - 0.0 - - - - - - -
21/01:30pm 25.2 ESE 9 11 1015.0 - 0.0 - - - - - - -
21/01:00pm 25.0 ESE 7 10 1015.4 - 0.0 - - - - - - -
21/12:30pm 25.0 ENE 5 7 1015.9 - 0.0 - - - - - - -
21/12:00pm 25.4 ESE 5 7 1016.3 - 0.0 - - - - - - -
21/11:30am 25.0 ESE 4 6 1016.8 - 0.0 - - - - - - -
21/11:00am 24.8 S 3 5 1017.2 - 0.0 - - - - - - -
21/10:30am 24.2 S 3 5 1017.5 - 0.0 - - - - - - -
21/10:00am 23.6 S 4 5 1017.6 - 0.0 - - - - - - -
21/09:30am 23.4 SSW 5 6 1017.7 - 0.0 - - - - - - -
21/09:00am 22.5 SW 5 6 1017.6 - 0.0 - - - - - - -
21/08:30am 22.2 SW 7 8 1017.4 - 0.0 - - - - - - -
21/08:00am 21.6 WSW 7 9 1017.1 - 0.0 - - - - - - -
21/07:30am 20.9 WSW 9 10 1016.7 - 0.0 - - - - - - -
21/07:00am 20.6 WSW 9 11 1016.3 - 0.0 - - - - - - -
21/06:30am 20.8 WSW 11 11 1016.0 - 0.0 - - - - - - -
21/06:00am 20.6 SW 10 11 1015.8 - 0.0 - - - - - - -
21/05:30am 20.9 WSW 9 11 1015.4 - 0.0 - - - - - - -
21/05:00am 21.1 SW 10 11 1015.3 - 0.0 - - - - - - -
21/04:30am 20.9 WSW 9 9 1015.0 - 0.0 - - - - - - -
21/04:00am 21.3 WSW 9 9 1014.9 - 0.0 - - - - - - -
21/03:30am 21.4 WSW 9 9 1014.8 - 0.0 - - - - - - -
21/03:00am 21.5 WSW 8 9 1014.9 - 0.0 - - - - - - -
21/02:30am 21.7 WSW 8 8 1014.9 - 0.0 - - - - - - -
21/02:00am 22.1 WSW 6 7 1015.2 - 0.0 - - - - - - -
21/01:30am 22.5 W 6 7 1015.5 - 0.0 - - - - - - -
21/01:00am 23.4 NNW 1 6 1015.8 - 0.0 - - - - - - -
21/12:30am 23.1 NNW 1 4 1015.9 - 0.0 - - - - - - -
21/12:00am 23.2 NW 3 5 1016.2 - 0.0 - - - - - - -
 
Date/Time
EST
Temp
°C
Wind Pressure Rain since
9am
mm
Weather Cloud Vis
km
Sea
Height
m
Swell
Dir  Spd
kts
Gust
kts
hPa Trend Height
m
Period
s
Dir
20/11:30pm 23.6 N 5 6 1016.4 - 0.0 - - - - - - -
20/11:00pm 23.3 N 4 6 1016.3 - 0.0 - - - - - - -

Other Formats:

Comma delimited format used in spreadsheet applications
http://www.bom.gov.au/fwo/IDQ60701/IDQ60701.94295.axf

JavaScript Object Notation format (JSON) in row-major order
http://www.bom.gov.au/fwo/IDQ60701/IDQ60701.94295.json